Portada
METAR-TAF:

METAR-TAF

Aeroports :

Kupang, Indonèsia

latitud: 10-10-17S, longitud: 123-40-16E, altitud: 102 m

Observació

L'informe es va fer fa 4 hores i 22 minuts, a les 12:00 UTC
Vent 4 kt del Est/Sud-Est
Temperatura 24°C
Humitat 78%
Pressió 1011 hPa
Visibilitat: 8000 m
Escasses núvols a una alçada de 1900 ft

METAR: WATT 051200Z 11004KT 8000 FEW019 24/20 Q1011 NOSIG

Hora: 23:22 (16:22 UTC)

Pronòstic

L'informe es va fer fa 5 hores i 22 minuts, a les 11:00 UTC
Pronòstic vàlid del 05 a les 12 UTC al 06 a les 12 UTC
Vent 9 kt del Sud-Est
Visibilitat 10 km o més
Núvols disperses a una alçada de 1800 ft
Evolucionant progressivament
l' 06 a les 03 UTC al 06 a les 05 UTC
Vent 14 kt del Nord-Oest

TAF: WATT 051100Z 0512/0612 13009KT 9999 SCT018 BECMG 0603/0605 32014KT

Observacions i pronòstics meteorològics de més de 4000 aeroports (METAR i TAF).

Les estacions disponibles són els punts grocs i vermells al mapa.

Posi el ratolí al punt desitjat per veure el nom de l'estació.

Feu clic per veure les observacions i els pronòstics meteorològics.

Per canviar el mapa: feu clic els botons verds amb una creu de color negre per apropar; al botó verd amb un guió per allunyar la imatge; o en les fletxes verdes per a mapes adjacents.


METAR-TAF: